Time;durP1;ratioP1;P1;durP2;ratioP2;P2;SDS_P1;SDS_P2;PMS_P1;PMS_P2;Temp;Humidity;BMP_temperature;BMP_pressure;BME280_temperature;BME280_humidity;BME280_pressure;Samples;Min_cycle;Max_cycle;Signal;HPM_P1;HPM_P2
2023/01/20 00:01:11;;;;;;;48.65;27.48;;;;;;;2.86;76.72;99165.88;5007478;28;20079;-78
2023/01/20 00:03:39;;;;;;;50.92;27.15;;;;;;;2.84;76.81;99165.09;5029432;28;20523;-77
2023/01/20 00:06:06;;;;;;;47.92;27.17;;;;;;;2.84;77.02;99170.31;5029890;28;20100;-78
2023/01/20 00:08:32;;;;;;;50.80;26.77;;;;;;;2.85;77.26;99177.19;5011942;28;20064;-78
2023/01/20 00:11:03;;;;;;;50.90;26.92;;;;;;;2.83;77.16;99178.97;5028178;28;20499;-78
2023/01/20 00:13:30;;;;;;;53.85;27.48;;;;;;;2.85;76.79;99179.78;5029535;28;20061;-78
2023/01/20 00:15:56;;;;;;;52.85;27.85;;;;;;;2.83;77.03;99169.44;5029852;28;20057;-77
2023/01/20 00:18:22;;;;;;;51.50;28.15;;;;;;;2.82;76.83;99166.88;5030042;28;20061;-78
2023/01/20 00:20:49;;;;;;;52.75;27.40;;;;;;;2.83;76.81;99164.25;5029545;28;20116;-77
2023/01/20 00:23:15;;;;;;;58.63;28.30;;;;;;;2.85;77.21;99172.00;5012283;28;20123;-78
2023/01/20 00:25:41;;;;;;;50.33;27.05;;;;;;;2.82;76.56;99170.34;5011649;28;20053;-78
2023/01/20 00:28:08;;;;;;;57.58;28.95;;;;;;;2.82;77.06;99167.75;5029618;28;20595;-78
2023/01/20 00:30:34;;;;;;;53.50;27.60;;;;;;;2.80;76.80;99169.53;5029513;28;20053;-77
2023/01/20 00:33:01;;;;;;;56.90;28.48;;;;;;;2.80;76.75;99174.72;5029540;28;20067;-78
2023/01/20 00:35:28;;;;;;;53.03;27.58;;;;;;;2.78;76.32;99179.16;5028718;28;20064;-77
2023/01/20 00:37:54;;;;;;;51.40;26.23;;;;;;;2.77;76.55;99182.66;5029398;28;20535;-77
2023/01/20 00:40:20;;;;;;;53.50;28.00;;;;;;;2.73;76.73;99174.09;5029381;28;20057;-78
2023/01/20 00:42:47;;;;;;;59.63;28.40;;;;;;;2.72;76.24;99194.94;5028282;28;20535;-77
2023/01/20 00:45:13;;;;;;;57.15;28.52;;;;;;;2.71;76.32;99190.66;5029584;28;20459;-78
2023/01/20 00:47:40;;;;;;;53.80;27.75;;;;;;;2.69;76.89;99192.47;5029257;28;20510;-78
2023/01/20 00:50:07;;;;;;;52.70;27.95;;;;;;;2.68;76.94;99202.00;5012173;28;20122;-78
2023/01/20 00:52:33;;;;;;;50.65;26.88;;;;;;;2.66;76.90;99203.81;5029205;28;20061;-78
2023/01/20 00:54:59;;;;;;;55.30;29.30;;;;;;;2.66;77.33;99201.22;5029313;28;20085;-78
2023/01/20 00:57:26;;;;;;;60.25;29.55;;;;;;;2.65;76.85;99203.84;5029091;28;20463;-78
2023/01/20 00:59:53;;;;;;;59.40;28.95;;;;;;;2.65;77.11;99209.88;5029554;28;20140;-78
2023/01/20 01:02:19;;;;;;;61.35;29.42;;;;;;;2.65;76.79;99207.28;5029230;28;20732;-78
2023/01/20 01:04:49;;;;;;;59.78;28.88;;;;;;;2.62;76.70;99212.59;5029343;28;20049;-78
2023/01/20 01:07:17;;;;;;;52.92;27.90;;;;;;;2.63;77.19;99203.91;5029035;28;20115;-78
2023/01/20 01:09:43;;;;;;;52.30;26.48;;;;;;;2.63;77.23;99213.44;5029590;28;20095;-78
2023/01/20 01:12:10;;;;;;;51.70;27.55;;;;;;;2.62;77.03;99212.59;5029338;28;20087;-78
2023/01/20 01:14:36;;;;;;;51.83;27.48;;;;;;;2.61;77.25;99210.88;5011712;28;20503;-78
2023/01/20 01:17:02;;;;;;;54.72;26.52;;;;;;;2.61;76.73;99205.69;5029129;28;20062;-77
2023/01/20 01:19:29;;;;;;;49.95;27.33;;;;;;;2.61;77.07;99218.69;5011786;28;20064;-78
2023/01/20 01:21:55;;;;;;;53.42;26.15;;;;;;;2.63;77.46;99221.22;5029236;28;20053;-78
2023/01/20 01:24:22;;;;;;;52.30;27.15;;;;;;;2.61;76.90;99213.47;5029384;28;20054;-78
2023/01/20 01:26:48;;;;;;;56.85;27.38;;;;;;;2.62;77.21;99225.59;5029148;28;20460;-78
2023/01/20 01:29:14;;;;;;;51.88;27.27;;;;;;;2.63;77.13;99229.03;5029119;28;20500;-77
2023/01/20 01:31:41;;;;;;;56.05;28.65;;;;;;;2.65;77.22;99233.28;5029262;28;20049;-77
2023/01/20 01:34:07;;;;;;;52.53;26.05;;;;;;;2.65;76.93;99235.88;5029079;28;20080;-77
2023/01/20 01:36:34;;;;;;;52.15;26.80;;;;;;;2.67;77.16;99241.03;5028924;28;20127;-78
2023/01/20 01:39:00;;;;;;;50.65;26.48;;;;;;;2.69;77.51;99237.47;5029320;28;20104;-78
2023/01/20 01:41:26;;;;;;;48.20;26.70;;;;;;;2.71;77.12;99246.09;5029135;28;20464;-78
2023/01/20 01:44:09;;;;;;;56.28;27.92;;;;;;;2.69;76.62;99245.25;5011205;28;20080;-77
2023/01/20 01:46:36;;;;;;;51.10;25.33;;;;;;;2.74;77.04;99247.72;5011446;28;20065;-77
2023/01/20 01:49:14;;;;;;;51.50;26.90;;;;;;;2.73;76.26;99246.03;5028894;28;20298;-78
2023/01/20 01:51:47;;;;;;;47.13;26.30;;;;;;;2.75;76.52;99249.41;5029360;28;20119;-78
2023/01/20 01:54:21;;;;;;;53.88;27.70;;;;;;;2.74;76.21;99251.16;5028881;28;20647;-78
2023/01/20 01:56:49;;;;;;;58.28;28.20;;;;;;;2.78;76.61;99248.47;5028972;28;20077;-78
2023/01/20 01:59:17;;;;;;;51.38;25.98;;;;;;;2.78;76.78;99248.47;5028786;28;20555;-78
2023/01/20 02:01:48;;;;;;;50.58;26.63;;;;;;;2.76;76.51;99256.31;5028961;28;20107;-77
2023/01/20 02:04:32;;;;;;;54.35;27.23;;;;;;;2.77;76.21;99257.16;5029227;28;20144;-78
2023/01/20 02:07:09;;;;;;;47.88;24.50;;;;;;;2.76;75.91;99258.91;5028754;28;20393;-78
2023/01/20 02:09:36;;;;;;;47.58;25.30;;;;;;;2.79;77.07;99255.34;5013995;28;20085;-78
2023/01/20 02:12:08;;;;;;;53.53;27.05;;;;;;;2.79;76.68;99263.16;5032221;28;20711;-78
2023/01/20 02:14:41;;;;;;;57.63;28.20;;;;;;;2.77;76.17;99258.03;5014960;28;20057;-78
2023/01/20 02:17:24;;;;;;;55.22;27.38;;;;;;;2.78;76.07;99256.25;5032015;28;20080;-78
2023/01/20 02:19:59;;;;;;;54.13;25.40;;;;;;;2.78;76.52;99258.84;5032481;28;20140;-77
2023/01/20 02:22:36;;;;;;;51.40;25.58;;;;;;;2.80;76.50;99262.28;5032187;28;20057;-77
2023/01/20 02:25:13;;;;;;;51.97;26.55;;;;;;;2.80;76.82;99260.50;5032169;28;20467;-78
2023/01/20 02:27:58;;;;;;;47.35;25.45;;;;;;;2.82;76.16;99260.47;5031968;28;20136;-77
2023/01/20 02:30:27;;;;;;;48.03;25.05;;;;;;;2.86;77.41;99267.25;5032244;28;20107;-77
2023/01/20 02:35:52;;;;;;;50.63;25.60;;;;;;;2.84;76.27;99274.28;5034302;23;20049;-77
2023/01/20 02:38:27;;;;;;;47.67;23.73;;;;;;;2.88;77.03;99273.28;5032288;28;20064;-77
2023/01/20 02:40:58;;;;;;;51.38;24.92;;;;;;;2.86;76.69;99278.53;5032961;28;20053;-77
2023/01/20 02:43:49;;;;;;;42.92;23.05;;;;;;;2.84;76.38;99275.09;5032609;28;20054;-77
2023/01/20 02:46:33;;;;;;;48.53;24.08;;;;;;;2.86;76.74;99280.25;5032871;28;20696;-77
2023/01/20 02:49:07;;;;;;;48.63;23.77;;;;;;;2.88;77.08;99285.41;5015085;28;20064;-77
2023/01/20 02:51:59;;;;;;;47.55;24.33;;;;;;;2.84;75.96;99287.28;5032636;28;20065;-77
2023/01/20 02:54:29;;;;;;;48.67;24.30;;;;;;;2.88;77.31;99285.41;5032826;28;20045;-77
2023/01/20 02:56:58;;;;;;;48.80;25.05;;;;;;;2.88;77.47;99285.41;5032112;28;20060;-77
2023/01/20 02:59:31;;;;;;;49.15;23.70;;;;;;;2.86;76.59;99291.50;5032548;28;20076;-77
2023/01/20 03:02:09;;;;;;;46.42;25.25;;;;;;;2.86;76.21;99283.72;5032461;28;20057;-78
2023/01/20 03:04:42;;;;;;;43.10;23.17;;;;;;;2.87;76.46;99297.53;5032538;28;20088;-77
2023/01/20 03:07:12;;;;;;;52.10;25.90;;;;;;;2.88;77.41;99293.22;5032385;28;20053;-77
2023/01/20 03:09:49;;;;;;;45.92;24.38;;;;;;;2.86;76.38;99296.72;5032366;28;20057;-77
2023/01/20 03:12:23;;;;;;;46.58;23.98;;;;;;;2.90;77.11;99304.41;5032453;28;20049;-77
2023/01/20 03:14:51;;;;;;;44.50;23.50;;;;;;;2.89;77.27;99308.75;5032138;28;20053;-78
2023/01/20 03:17:18;;;;;;;46.35;24.20;;;;;;;2.89;77.29;99311.38;5032106;28;20049;-77
2023/01/20 03:19:45;;;;;;;45.17;23.42;;;;;;;2.91;77.15;99309.53;5031160;28;20060;-77
2023/01/20 03:22:12;;;;;;;42.72;21.80;;;;;;;2.92;77.36;99315.59;5032024;28;20045;-77
2023/01/20 03:24:41;;;;;;;47.45;22.98;;;;;;;2.93;77.32;99318.16;5032141;28;20152;-77
2023/01/20 03:27:10;;;;;;;42.22;21.17;;;;;;;2.94;77.54;99322.44;5031629;28;20136;-77
2023/01/20 03:29:37;;;;;;;41.28;21.20;;;;;;;2.95;77.72;99318.94;5032156;28;20057;-78
2023/01/20 03:32:06;;;;;;;40.28;20.10;;;;;;;2.95;77.25;99318.94;5032050;28;20079;-77
2023/01/20 03:34:36;;;;;;;41.45;21.10;;;;;;;2.97;77.08;99324.09;5031852;28;20072;-77
2023/01/20 03:37:04;;;;;;;53.33;24.00;;;;;;;3.00;77.71;99317.03;5031623;28;20053;-77
2023/01/20 03:39:31;;;;;;;47.53;23.02;;;;;;;3.02;77.24;99329.16;5032024;28;20136;-77
2023/01/20 03:42:23;;;;;;;42.92;22.35;;;;;;;3.02;76.38;99330.00;5032475;28;20061;-77
2023/01/20 03:45:15;;;;;;;41.20;21.45;;;;;;;3.06;76.94;99328.16;5032185;28;20057;-77
2023/01/20 03:47:57;;;;;;;47.58;23.48;;;;;;;3.09;77.23;99320.25;5031609;28;20092;-77
2023/01/20 03:50:42;;;;;;;42.65;21.98;;;;;;;3.10;77.22;99338.41;5031917;28;20783;-77
2023/01/20 03:53:30;;;;;;;44.58;22.70;;;;;;;3.08;76.32;99334.16;5031792;28;20060;-77
2023/01/20 03:56:04;;;;;;;51.38;23.80;;;;;;;3.08;76.15;99335.00;5013899;28;20136;-77
2023/01/20 03:58:36;;;;;;;43.58;22.52;;;;;;;3.10;76.92;99346.19;5031311;28;20140;-77
2023/01/20 04:01:08;;;;;;;42.97;22.75;;;;;;;3.10;77.06;99340.16;5013640;28;20600;-78
2023/01/20 04:03:47;;;;;;;40.38;21.88;;;;;;;3.12;77.39;99347.00;5031540;28;20057;-77
2023/01/20 04:06:16;;;;;;;49.50;23.88;;;;;;;3.15;77.48;99345.19;5031205;28;20115;-77
2023/01/20 04:08:48;;;;;;;46.30;23.45;;;;;;;3.16;77.47;99344.28;5031010;28;20053;-77
2023/01/20 04:11:14;;;;;;;52.80;24.77;;;;;;;3.19;77.57;99345.06;5014012;28;20053;-77
2023/01/20 04:13:41;;;;;;;47.85;25.35;;;;;;;3.22;77.90;99342.34;5031420;28;20095;-77
2023/01/20 04:16:17;;;;;;;52.60;25.65;;;;;;;3.22;76.63;99342.34;5031419;28;20096;-77
2023/01/20 04:18:49;;;;;;;49.95;25.77;;;;;;;3.24;77.17;99343.16;5030953;28;20304;-78
2023/01/20 04:21:23;;;;;;;60.63;25.97;;;;;;;3.27;77.12;99350.00;5013525;28;20153;-77
2023/01/20 04:24:22;;;;;;;57.60;27.08;;;;;;;3.26;76.01;99345.69;5031172;28;20283;-77
2023/01/20 04:26:48;;;;;;;62.88;27.40;;;;;;;3.29;77.29;99342.16;5007983;28;20073;-78
2023/01/20 04:29:15;;;;;;;59.30;28.85;;;;;;;3.28;76.90;99345.66;5031043;28;20058;-77
2023/01/20 04:31:41;;;;;;;56.70;28.45;;;;;;;3.27;77.30;99347.41;5030568;28;20053;-77
2023/01/20 04:34:12;;;;;;;55.30;28.38;;;;;;;3.24;77.11;99350.94;5013276;28;20061;-77
2023/01/20 04:36:39;;;;;;;54.78;26.95;;;;;;;3.25;77.06;99344.84;5013178;28;20577;-77
2023/01/20 04:39:05;;;;;;;60.00;27.98;;;;;;;3.24;77.29;99337.94;5031020;28;20067;-78
2023/01/20 04:41:32;;;;;;;63.65;30.23;;;;;;;3.24;76.93;99345.75;5030988;28;20071;-77
2023/01/20 04:43:59;;;;;;;56.90;29.65;;;;;;;3.23;77.11;99354.47;5030609;28;20054;-77
2023/01/20 04:46:25;;;;;;;54.50;27.80;;;;;;;3.23;77.21;99354.47;5030434;28;20490;-78
2023/01/20 04:48:52;;;;;;;51.40;26.33;;;;;;;3.22;76.93;99351.91;5030680;28;20057;-78
2023/01/20 04:51:18;;;;;;;63.25;29.20;;;;;;;3.21;77.35;99356.25;5031022;28;20060;-78
2023/01/20 04:53:45;;;;;;;51.20;26.90;;;;;;;3.22;77.30;99362.31;5030704;28;20049;-77
2023/01/20 04:56:13;;;;;;;55.22;27.15;;;;;;;3.22;77.14;99363.16;5030437;28;20148;-78
2023/01/20 04:58:40;;;;;;;57.55;27.33;;;;;;;3.23;77.37;99370.06;5030410;28;20133;-78
2023/01/20 05:01:07;;;;;;;50.15;25.08;;;;;;;3.24;77.13;99370.91;5030790;28;20061;-77
2023/01/20 05:03:35;;;;;;;48.90;24.10;;;;;;;3.24;77.31;99368.31;5013262;28;20057;-77
2023/01/20 05:06:01;;;;;;;49.03;24.88;;;;;;;3.24;77.31;99374.38;5012604;28;20458;-77
2023/01/20 05:08:28;;;;;;;47.83;23.48;;;;;;;3.23;77.07;99370.06;5030407;28;20091;-78
2023/01/20 05:10:55;;;;;;;50.25;24.27;;;;;;;3.24;76.78;99373.50;5030425;28;20084;-78
2023/01/20 05:13:21;;;;;;;46.97;24.33;;;;;;;3.23;77.17;99374.41;5030291;28;20053;-77
2023/01/20 05:15:48;;;;;;;47.17;23.45;;;;;;;3.22;77.31;99378.75;5030237;28;20045;-77
2023/01/20 05:18:14;;;;;;;47.63;25.05;;;;;;;3.22;76.88;99377.91;5030170;28;20111;-77
2023/01/20 05:20:46;;;;;;;46.58;23.67;;;;;;;3.19;76.60;99386.69;5012713;28;20071;-77
2023/01/20 05:23:14;;;;;;;44.80;23.10;;;;;;;3.19;76.57;99384.06;5030302;28;20067;-78
2023/01/20 05:25:40;;;;;;;39.03;21.05;;;;;;;3.19;76.47;99383.22;5030082;28;20160;-77
2023/01/20 05:28:07;;;;;;;37.45;19.00;;;;;;;3.17;77.24;99385.84;5030056;28;20056;-77
2023/01/20 05:30:34;;;;;;;34.70;17.98;;;;;;;3.16;76.76;99384.16;5030264;28;20061;-77
2023/01/20 05:33:00;;;;;;;30.98;17.00;;;;;;;3.15;76.93;99387.69;5030301;28;20054;-77
2023/01/20 05:35:27;;;;;;;30.45;16.38;;;;;;;3.16;76.78;99391.09;5030131;28;20057;-78
2023/01/20 05:37:54;;;;;;;27.35;14.85;;;;;;;3.16;76.62;99393.72;5012412;28;20089;-77
2023/01/20 05:40:21;;;;;;;29.40;16.30;;;;;;;3.16;76.33;99393.72;5012579;28;20061;-77
2023/01/20 05:42:47;;;;;;;27.85;15.75;;;;;;;3.16;76.89;99399.78;5030001;28;20072;-77
2023/01/20 05:45:14;;;;;;;29.45;15.80;;;;;;;3.15;76.72;99392.88;5033781;28;20053;-77
2023/01/20 05:47:41;;;;;;;28.92;15.43;;;;;;;3.17;76.78;99390.22;5033745;28;20517;-77
2023/01/20 05:50:08;;;;;;;29.88;15.95;;;;;;;3.16;76.39;99399.78;5033909;28;20061;-77
2023/01/20 05:52:34;;;;;;;28.60;15.80;;;;;;;3.17;76.70;99401.47;5020258;28;20080;-77
2023/01/20 05:55:01;;;;;;;29.77;15.75;;;;;;;3.16;76.59;99396.31;5013814;28;20057;-77
2023/01/20 05:57:27;;;;;;;27.20;15.60;;;;;;;3.15;76.38;99400.69;5013994;28;20089;-77
2023/01/20 06:00:00;;;;;;;27.15;14.73;;;;;;;3.15;76.52;99408.47;5014081;28;20064;-77
2023/01/20 06:02:29;;;;;;;25.58;15.25;;;;;;;3.13;76.41;99408.53;5014132;28;20064;-77
2023/01/20 06:04:56;;;;;;;32.10;16.63;;;;;;;3.15;76.32;99408.47;5013598;28;20060;-77
2023/01/20 06:07:22;;;;;;;30.10;16.52;;;;;;;3.13;76.37;99411.13;5013564;28;20768;-77
2023/01/20 06:09:49;;;;;;;30.17;15.45;;;;;;;3.15;77.02;99428.44;5019102;28;20081;-77
2023/01/20 06:12:15;;;;;;;34.75;17.15;;;;;;;3.14;76.73;99422.34;5033019;28;20053;-77
2023/01/20 06:14:42;;;;;;;37.53;17.73;;;;;;;3.14;76.54;99422.34;5033277;28;20054;-77
2023/01/20 06:17:09;;;;;;;31.85;16.73;;;;;;;3.15;76.98;99424.09;5033192;28;20096;-77
2023/01/20 06:19:36;;;;;;;34.78;18.35;;;;;;;3.16;76.40;99438.78;5031415;28;20153;-78
2023/01/20 06:22:02;;;;;;;35.38;18.55;;;;;;;3.17;76.70;99440.47;5015461;28;20049;-77
2023/01/20 06:24:29;;;;;;;38.97;18.85;;;;;;;3.17;77.05;99443.06;5006443;28;20058;-78
2023/01/20 06:26:55;;;;;;;35.20;18.98;;;;;;;3.18;76.85;99449.97;5032486;28;20572;-78
2023/01/20 06:29:22;;;;;;;34.13;17.50;;;;;;;3.18;76.75;99444.78;5032959;28;20062;-78
2023/01/20 06:31:48;;;;;;;37.65;17.65;;;;;;;3.19;76.44;99451.69;5015616;28;20398;-78
2023/01/20 06:34:15;;;;;;;38.78;18.63;;;;;;;3.18;76.75;99449.97;5032996;28;20062;-78
2023/01/20 06:36:41;;;;;;;32.03;17.85;;;;;;;3.19;76.85;99456.03;5029097;28;20132;-77
2023/01/20 06:39:08;;;;;;;34.83;18.85;;;;;;;3.20;76.48;99461.19;5026029;28;20061;-78
2023/01/20 06:41:34;;;;;;;35.60;19.10;;;;;;;3.18;76.29;99460.38;5028013;28;20077;-78
2023/01/20 06:44:01;;;;;;;34.28;18.45;;;;;;;3.17;76.50;99458.69;5013687;28;20136;-78
2023/01/20 06:46:27;;;;;;;30.30;16.60;;;;;;;3.17;76.27;99465.66;5012027;28;20050;-78
2023/01/20 06:48:59;;;;;;;32.65;17.17;;;;;;;3.16;76.23;99469.13;5023781;28;20065;-78
2023/01/20 06:51:27;;;;;;;33.03;17.25;;;;;;;3.13;75.73;99467.47;5030009;28;20057;-79
2023/01/20 06:53:55;;;;;;;30.17;16.23;;;;;;;3.12;76.17;99477.06;5032098;28;20140;-78
2023/01/20 06:56:22;;;;;;;33.17;18.02;;;;;;;3.11;76.04;99480.53;5031469;28;20538;-78
2023/01/20 06:58:49;;;;;;;31.92;17.20;;;;;;;3.13;76.79;99485.69;5014235;28;20144;-78
2023/01/20 07:01:22;;;;;;;33.72;17.90;;;;;;;3.12;75.70;99487.47;5030269;28;20057;-77
2023/01/20 07:03:49;;;;;;;31.42;17.73;;;;;;;3.16;76.52;99487.34;5032183;28;20082;-78
2023/01/20 07:06:28;;;;;;;33.10;18.08;;;;;;;3.16;76.35;99490.81;5032190;28;20462;-78
2023/01/20 07:08:56;;;;;;;33.92;18.23;;;;;;;3.19;76.44;99493.31;5014479;28;20059;-78
2023/01/20 07:11:25;;;;;;;38.67;18.17;;;;;;;3.21;76.57;99491.50;5014415;28;20533;-78
2023/01/20 07:13:51;;;;;;;36.97;19.35;;;;;;;3.21;76.16;99488.91;5031923;28;20053;-78
2023/01/20 07:16:18;;;;;;;37.38;19.95;;;;;;;3.21;75.96;99491.50;5031741;28;20060;-78
2023/01/20 07:18:50;;;;;;;33.20;18.77;;;;;;;3.19;75.56;99497.66;5032423;28;20053;-78
2023/01/20 07:21:17;;;;;;;35.30;20.15;;;;;;;3.20;76.42;99500.22;5031910;28;20057;-78
2023/01/20 07:23:44;;;;;;;37.15;18.48;;;;;;;3.21;76.25;99507.13;5031940;28;20136;-78
2023/01/20 07:26:14;;;;;;;36.17;18.77;;;;;;;3.19;75.75;99505.47;5031863;28;20100;-78
2023/01/20 07:28:41;;;;;;;34.55;18.65;;;;;;;3.19;76.29;99510.66;5014089;28;20601;-79
2023/01/20 07:31:10;;;;;;;33.20;17.63;;;;;;;3.18;76.07;99509.81;5014575;28;20065;-80
2023/01/20 07:33:37;;;;;;;36.28;18.20;;;;;;;3.18;76.02;99509.81;5031938;28;20135;-80
2023/01/20 07:36:05;;;;;;;40.20;20.23;;;;;;;3.17;76.00;99508.09;5031900;28;20096;-80
2023/01/20 07:38:33;;;;;;;37.35;19.25;;;;;;;3.18;76.17;99509.81;5031832;28;20061;-80
2023/01/20 07:41:01;;;;;;;40.63;19.85;;;;;;;3.18;76.44;99514.16;5031830;28;20867;-80
2023/01/20 07:43:30;;;;;;;37.83;20.63;;;;;;;3.19;76.07;99527.13;5031644;28;20057;-80
2023/01/20 07:45:59;;;;;;;35.90;18.98;;;;;;;3.17;76.28;99528.09;5031556;28;20060;-80
2023/01/20 07:48:29;;;;;;;39.45;18.52;;;;;;;3.19;76.00;99536.69;5014073;28;20060;-80
2023/01/20 07:51:01;;;;;;;33.97;17.90;;;;;;;3.16;75.17;99537.63;5031596;28;20506;-80
2023/01/20 07:53:28;;;;;;;;;;;;;;;3.18;74.39;99540.19;5014281;28;20065;-80
2023/01/20 07:55:55;;;;;;;32.72;16.05;;;;;;;3.22;76.21;99541.78;5031333;28;19928;-79
2023/01/20 07:58:21;;;;;;;35.65;18.45;;;;;;;3.21;76.48;99547.91;5031573;28;20130;-77
2023/01/20 08:00:48;;;;;;;36.70;19.67;;;;;;;3.20;76.37;99547.03;5013720;28;20053;-80
2023/01/20 08:03:15;;;;;;;37.63;20.20;;;;;;;3.20;76.12;99544.44;5031430;28;20064;-80
2023/01/20 08:05:41;;;;;;;41.17;20.63;;;;;;;3.21;76.67;99553.09;5030570;28;20059;-80
2023/01/20 08:08:08;;;;;;;36.15;18.92;;;;;;;3.21;76.53;99556.53;5030984;28;20141;-79
2023/01/20 08:10:34;;;;;;;36.90;19.77;;;;;;;3.22;76.28;99555.63;5031148;28;20064;-79
2023/01/20 08:13:01;;;;;;;32.92;18.48;;;;;;;3.23;77.00;99559.97;5031056;28;20061;-78
2023/01/20 08:15:28;;;;;;;44.13;21.00;;;;;;;3.25;76.36;99559.88;5013737;28;20057;-79
2023/01/20 08:17:55;;;;;;;42.55;20.75;;;;;;;3.26;76.63;99565.06;5031171;28;20053;-78
2023/01/20 08:20:22;;;;;;;43.60;22.05;;;;;;;3.26;76.20;99553.81;5031217;28;20132;-79
2023/01/20 08:22:48;;;;;;;36.10;21.27;;;;;;;3.26;76.42;99559.84;5031008;28;20145;-79
2023/01/20 08:25:16;;;;;;;35.58;20.10;;;;;;;3.26;76.46;99565.06;5031034;28;20064;-79
2023/01/20 08:27:43;;;;;;;41.00;21.35;;;;;;;3.27;75.94;99565.91;5031054;28;20053;-79
2023/01/20 08:30:10;;;;;;;43.00;22.60;;;;;;;3.25;76.11;99571.16;5031119;28;20152;-79
2023/01/20 08:32:36;;;;;;;40.60;21.38;;;;;;;3.24;75.84;99566.84;5030994;28;20061;-78
2023/01/20 08:35:04;;;;;;;41.70;22.35;;;;;;;3.23;76.09;99582.50;5099668;23;20190;-78
2023/01/20 08:37:30;;;;;;;43.28;21.10;;;;;;;3.22;76.20;99573.00;5012726;28;20049;-80
2023/01/20 08:39:57;;;;;;;42.20;22.48;;;;;;;3.20;75.75;99578.25;5013264;28;20061;-78
2023/01/20 08:42:23;;;;;;;42.42;21.92;;;;;;;3.21;76.41;99574.75;5030458;28;20053;-78
2023/01/20 08:44:52;;;;;;;40.20;21.33;;;;;;;3.18;75.76;99580.03;5030687;28;20046;-77
2023/01/20 08:47:18;;;;;;;45.38;22.20;;;;;;;3.19;76.15;99589.56;5064375;22;20390;-79
2023/01/20 08:49:45;;;;;;;40.83;21.75;;;;;;;3.19;76.06;99599.97;5030098;28;20058;-77
2023/01/20 08:52:11;;;;;;;40.40;21.42;;;;;;;3.19;76.07;99602.56;5030218;28;20150;-78
2023/01/20 08:54:38;;;;;;;41.40;21.77;;;;;;;3.19;75.88;99602.56;5030114;28;20084;-77
2023/01/20 08:57:04;;;;;;;40.45;21.02;;;;;;;3.19;75.86;99602.56;5030177;28;20053;-78
2023/01/20 08:59:31;;;;;;;38.92;21.20;;;;;;;3.20;75.86;99606.00;5012785;28;20046;-78
2023/01/20 09:01:57;;;;;;;40.30;21.95;;;;;;;3.19;75.95;99612.97;5030550;28;20140;-78
2023/01/20 09:04:24;;;;;;;38.83;21.60;;;;;;;3.19;76.24;99614.72;5030111;28;20057;-79
2023/01/20 09:06:51;;;;;;;35.42;20.25;;;;;;;3.18;75.87;99615.59;5029951;28;20049;-78
2023/01/20 09:09:20;;;;;;;40.20;21.55;;;;;;;3.16;75.90;99615.66;5012563;28;20119;-80
2023/01/20 09:11:51;;;;;;;40.38;20.88;;;;;;;3.18;76.65;99618.22;5012970;28;20071;-77
2023/01/20 09:14:19;;;;;;;38.58;20.20;;;;;;;3.16;76.29;99623.47;5029992;28;20494;-79
2023/01/20 09:16:47;;;;;;;36.38;19.75;;;;;;;3.18;76.44;99626.84;5030016;28;20053;-78
2023/01/20 09:19:13;;;;;;;38.78;20.52;;;;;;;3.20;76.39;99625.06;5033865;28;20148;-78
2023/01/20 09:21:41;;;;;;;39.10;20.00;;;;;;;3.21;76.56;99637.19;5034129;28;20064;-81
2023/01/20 09:24:08;;;;;;;35.88;20.23;;;;;;;3.25;76.95;99636.19;5034105;28;20055;-77
2023/01/20 09:26:37;;;;;;;41.17;21.60;;;;;;;3.30;76.74;99645.63;5016081;28;20054;-79
2023/01/20 09:29:08;;;;;;;36.72;19.40;;;;;;;3.32;75.87;99649.03;5034196;28;20061;-78
2023/01/20 09:31:37;;;;;;;36.78;20.08;;;;;;;3.35;76.83;99648.94;5034175;28;20136;-78
2023/01/20 09:34:04;;;;;;;35.20;20.10;;;;;;;3.38;76.54;99648.84;5016403;28;20545;-78
2023/01/20 09:36:31;;;;;;;39.20;20.45;;;;;;;3.39;76.57;99651.41;5033520;28;20402;-77
2023/01/20 09:44:47;;;;;;;38.15;21.92;;;;;;;3.52;76.33;99666.69;5033488;28;20095;-79
2023/01/20 09:47:46;;;;;;;39.30;22.05;;;;;;;3.52;74.66;99671.88;5033405;28;20061;-77
2023/01/20 09:53:14;;;;;;;37.00;19.83;;;;;;;3.60;75.85;99679.44;5033776;28;20585;-79
2023/01/20 09:55:46;;;;;;;37.10;20.40;;;;;;;3.63;76.08;99679.38;5015877;28;20103;-79
2023/01/20 09:58:36;;;;;;;41.25;21.10;;;;;;;3.64;74.90;99686.28;5016006;28;20204;-79
2023/01/20 10:01:17;;;;;;;38.28;21.60;;;;;;;3.69;75.62;99684.38;5033385;28;20050;-80
2023/01/20 10:04:04;;;;;;;39.78;22.35;;;;;;;3.71;73.86;99693.00;5033416;28;20416;-78
2023/01/20 10:06:38;;;;;;;37.47;20.92;;;;;;;3.75;75.63;99684.22;5033128;28;20081;-79
2023/01/20 10:09:20;;;;;;;41.40;21.92;;;;;;;3.76;75.26;99692.88;5033560;28;20136;-78
2023/01/20 10:11:48;;;;;;;39.75;21.10;;;;;;;3.80;76.10;99691.00;5015700;28;20064;-78
2023/01/20 10:14:20;;;;;;;38.88;20.88;;;;;;;3.80;75.17;99691.88;5033623;28;20486;-77
2023/01/20 10:17:12;;;;;;;36.70;20.80;;;;;;;3.81;75.04;99692.75;5032889;28;20490;-78
2023/01/20 10:20:11;;;;;;;42.90;22.63;;;;;;;3.85;74.55;99697.78;5033772;28;20084;-77
2023/01/20 10:22:49;;;;;;;38.38;21.38;;;;;;;3.90;74.62;99702.88;5024964;28;20056;-80
2023/01/20 10:25:19;;;;;;;38.08;21.70;;;;;;;3.95;75.86;99698.38;5015780;28;20087;-78
2023/01/20 10:27:54;;;;;;;37.13;21.35;;;;;;;3.98;76.01;99698.28;5032828;28;20068;-78
2023/01/20 10:30:25;;;;;;;39.50;21.95;;;;;;;4.03;76.44;99699.00;5032564;28;20089;-77
2023/01/20 10:33:01;;;;;;;40.17;20.92;;;;;;;4.06;75.50;99692.84;5032769;28;20144;-77
2023/01/20 10:35:32;;;;;;;39.97;22.42;;;;;;;4.12;75.97;99697.00;5033163;28;20045;-77
2023/01/20 10:37:59;;;;;;;38.63;22.92;;;;;;;4.16;76.78;99694.22;5032692;28;20057;-79
2023/01/20 10:40:39;;;;;;;43.90;23.38;;;;;;;4.17;75.27;99703.78;5033292;28;20052;-78
2023/01/20 10:43:12;;;;;;;41.00;23.52;;;;;;;4.23;75.59;99700.09;5032600;28;20053;-77
2023/01/20 10:45:45;;;;;;;;;;;;;;;4.27;73.66;99701.72;5033067;28;20061;-78
2023/01/20 10:48:23;;;;;;;35.20;19.63;;;;;;;4.30;73.88;99696.41;5032245;28;19943;-77
2023/01/20 10:51:02;;;;;;;41.45;21.98;;;;;;;4.29;74.27;99705.13;5015263;28;20053;-77
2023/01/20 10:53:33;;;;;;;37.58;21.95;;;;;;;4.29;74.66;99702.53;5032332;28;20549;-79
2023/01/20 10:56:02;;;;;;;39.30;22.60;;;;;;;4.30;75.95;99706.00;5032927;28;20057;-78
2023/01/20 10:58:34;;;;;;;39.88;22.38;;;;;;;4.30;75.71;99706.84;5032321;28;20050;-78
2023/01/20 11:01:08;;;;;;;35.08;21.02;;;;;;;4.30;74.76;99703.41;5032637;28;20089;-79
2023/01/20 11:03:39;;;;;;;34.97;20.65;;;;;;;4.32;75.23;99708.53;5032304;28;20056;-77
2023/01/20 11:06:13;;;;;;;39.50;22.17;;;;;;;4.35;76.02;99703.22;5014515;28;20053;-78
2023/01/20 11:08:41;;;;;;;38.15;22.50;;;;;;;4.37;76.02;99704.06;5032238;28;20056;-80
2023/01/20 11:11:18;;;;;;;38.03;20.52;;;;;;;4.38;75.19;99706.56;5032451;28;20111;-78
2023/01/20 11:13:45;;;;;;;35.50;21.23;;;;;;;4.43;75.93;99709.91;5032289;28;20533;-78
2023/01/20 11:16:17;;;;;;;36.45;22.42;;;;;;;4.43;75.20;99709.91;5032016;28;20054;-80
2023/01/20 11:19:06;;;;;;;34.83;21.42;;;;;;;4.46;73.64;99713.31;5031860;28;20060;-77
2023/01/20 11:21:35;;;;;;;34.13;19.25;;;;;;;4.51;75.44;99719.22;5032133;28;20053;-80
2023/01/20 11:24:31;;;;;;;34.03;20.40;;;;;;;4.49;73.02;99721.88;5031950;28;20054;-78
2023/01/20 11:27:10;;;;;;;35.22;19.17;;;;;;;4.50;73.70;99726.22;5016777;28;20053;-77
2023/01/20 11:29:43;;;;;;;29.85;17.90;;;;;;;4.53;74.29;99735.69;5031994;28;20137;-77
2023/01/20 11:32:28;;;;;;;35.13;19.27;;;;;;;4.51;72.99;99737.47;5031988;28;20471;-78
2023/01/20 11:34:56;;;;;;;35.28;20.95;;;;;;;4.53;74.89;99733.06;5031581;28;20063;-78
2023/01/20 11:37:38;;;;;;;30.90;19.13;;;;;;;4.50;72.15;99734.03;5031709;28;20092;-78
2023/01/20 11:40:26;;;;;;;29.05;18.83;;;;;;;4.47;71.79;99739.34;5031500;28;20046;-77
2023/01/20 11:42:54;;;;;;;30.58;17.30;;;;;;;4.49;74.21;99740.13;5031406;28;20053;-77
2023/01/20 11:45:26;;;;;;;29.05;17.98;;;;;;;4.44;73.06;99734.22;5031438;28;20071;-77
2023/01/20 11:48:09;;;;;;;29.98;17.67;;;;;;;4.40;72.83;99738.69;5013928;28;20140;-77
2023/01/20 11:50:46;;;;;;;32.80;18.40;;;;;;;4.40;72.94;99743.03;5031778;28;20140;-80
2023/01/20 11:53:20;;;;;;;30.42;18.83;;;;;;;4.39;73.45;99743.94;5014222;28;20143;-78